VTCC/CNX METAR and TAF weather

Enter ICAO airport designator
Station Type Date Time Source
VTCC METAR 2020/01/29 03:30 UTC NOAA

VTCC 290330Z VRB02KT 9000 NSC 22/10 Q1019 NOSIG


Station Type Date Time Source
VTCC Decoded METAR 2020/01/29 03:30 UTC NOAA

Chiang Mai, Thailand (VTCC) 18-47N 098-59E 314M
Jan 28, 2020 - 10:30 PM EST / 2020.01.29 0330 UTC
Wind: Variable at 2 MPH (2 KT):0
Visibility: 5 mile(s):0
Temperature: 71 F (22 C)
Dew Point: 50 F (10 C)
Relative Humidity: 46%
Pressure (altimeter): 30.09 in. Hg (1019 hPa)
ob: VTCC 290330Z VRB02KT 9000 NSC 22/10 Q1019 NOSIG
cycle: 3

Station Type Date Time Source
VTCC TAF 2020/01/28 18:37 UTC NOAA

TAF VTCC 281700Z 2818/2924 00000KT 9000 NSC

Example: see airport list